Time;durP1;ratioP1;P1;durP2;ratioP2;P2;SDS_P1;SDS_P2;PMS_P1;PMS_P2;Temp;Humidity;BMP_temperature;BMP_pressure;BME280_temperature;BME280_humidity;BME280_pressure;Samples;Min_cycle;Max_cycle;Signal;HPM_P1;HPM_P2
2024/01/18 00:02:07;;;;;;;6.17;4.23;;;;;;;1.35;100.00;98527.19;5109106;27;20237;-60
2024/01/18 00:04:34;;;;;;;4.40;3.40;;;;;;;1.34;100.00;98518.03;5109148;28;20581;-60
2024/01/18 00:07:01;;;;;;;5.17;3.20;;;;;;;1.44;100.00;98520.94;5109207;28;20193;-61
2024/01/18 00:09:28;;;;;;;6.73;3.40;;;;;;;1.29;100.00;98530.81;5109078;28;20674;-60
2024/01/18 00:11:55;;;;;;;5.80;3.80;;;;;;;1.36;100.00;98516.22;5109203;28;20665;-61
2024/01/18 00:14:22;;;;;;;6.17;3.53;;;;;;;1.44;100.00;98518.44;5109560;28;20201;-61
2024/01/18 00:16:48;;;;;;;6.57;3.27;;;;;;;1.55;100.00;98522.09;5109008;28;20193;-61
2024/01/18 00:19:16;;;;;;;6.70;4.20;;;;;;;1.57;100.00;98529.56;5109016;28;20694;-60
2024/01/18 00:21:43;;;;;;;5.10;4.20;;;;;;;1.57;100.00;98514.47;5108911;28;20756;-60
2024/01/18 00:24:10;;;;;;;5.27;3.27;;;;;;;1.51;100.00;98513.06;5109375;28;20202;-60
2024/01/18 00:26:37;;;;;;;5.37;2.90;;;;;;;1.51;100.00;98520.63;5108952;28;20204;-61
2024/01/18 00:29:04;;;;;;;5.60;3.97;;;;;;;1.56;100.00;98511.13;5108822;28;20705;-61
2024/01/18 00:31:30;;;;;;;4.83;3.80;;;;;;;1.51;100.00;98509.69;5109041;28;20220;-60
2024/01/18 00:33:58;;;;;;;9.53;4.03;;;;;;;1.37;100.00;98512.84;5109108;28;20208;-61
2024/01/18 00:36:26;;;;;;;3.57;3.07;;;;;;;1.38;100.00;98519.50;5108869;28;20661;-61
2024/01/18 00:38:53;;;;;;;3.27;2.87;;;;;;;1.47;100.00;98509.03;5109175;28;20208;-60
2024/01/18 00:41:20;;;;;;;7.40;4.73;;;;;;;1.50;100.00;98508.88;5109107;28;20239;-61
2024/01/18 00:43:47;;;;;;;5.97;3.27;;;;;;;1.55;100.00;98506.19;5108868;28;20690;-60
2024/01/18 00:46:14;;;;;;;6.23;3.93;;;;;;;1.33;100.00;98506.28;5109040;28;20202;-61
2024/01/18 00:48:41;;;;;;;9.57;3.10;;;;;;;1.40;100.00;98505.16;5111341;28;20670;-61
2024/01/18 00:51:08;;;;;;;4.40;3.57;;;;;;;1.40;100.00;98501.78;5113096;28;20208;-61
2024/01/18 00:53:36;;;;;;;4.17;2.83;;;;;;;1.37;100.00;98502.78;5112970;28;20242;-60
2024/01/18 00:56:03;;;;;;;5.80;3.23;;;;;;;1.33;100.00;98501.25;5112797;28;20221;-60
2024/01/18 00:58:30;;;;;;;7.93;4.17;;;;;;;1.34;100.00;98498.69;5112668;28;20197;-60
2024/01/18 01:00:57;;;;;;;4.50;3.60;;;;;;;1.28;100.00;98495.59;5112572;28;20239;-60
2024/01/18 01:03:23;;;;;;;5.17;3.27;;;;;;;1.26;100.00;98489.84;5113088;28;20201;-61
2024/01/18 01:05:50;;;;;;;6.87;4.90;;;;;;;1.23;100.00;98495.00;5113022;28;20208;-60
2024/01/18 01:08:17;;;;;;;4.67;3.30;;;;;;;1.13;100.00;98497.94;5112658;28;20197;-60
2024/01/18 01:10:45;;;;;;;6.93;4.50;;;;;;;1.11;100.00;98491.31;5112490;27;20210;-60
2024/01/18 01:13:12;;;;;;;10.07;4.07;;;;;;;1.06;100.00;98494.03;5112594;28;20201;-61
2024/01/18 01:15:39;;;;;;;7.90;4.23;;;;;;;1.07;100.00;98478.03;5112733;28;20214;-61
2024/01/18 01:18:06;;;;;;;4.70;3.37;;;;;;;1.03;100.00;98471.50;5112555;28;20197;-60
2024/01/18 01:20:32;;;;;;;7.30;4.43;;;;;;;0.83;100.00;98466.50;5112236;28;20756;-60
2024/01/18 01:22:59;;;;;;;9.60;5.03;;;;;;;0.70;100.00;98460.34;5112261;28;20595;-60
2024/01/18 01:25:26;;;;;;;9.67;3.97;;;;;;;0.80;100.00;98446.50;5112398;28;20201;-62
2024/01/18 01:27:54;;;;;;;5.03;3.43;;;;;;;0.80;100.00;98442.28;5112387;28;20197;-61
2024/01/18 01:30:22;;;;;;;9.73;5.63;;;;;;;0.87;100.00;98435.28;5112268;28;20197;-61
2024/01/18 01:32:49;;;;;;;6.63;4.47;;;;;;;0.98;100.00;98440.69;5112252;28;20197;-61
2024/01/18 01:35:16;;;;;;;7.20;4.27;;;;;;;0.98;100.00;98435.66;5112423;28;20204;-61
2024/01/18 01:37:42;;;;;;;8.13;4.13;;;;;;;0.96;100.00;98422.34;5112237;28;20208;-60
2024/01/18 01:40:10;;;;;;;7.70;5.17;;;;;;;1.00;100.00;98416.28;5112010;28;20710;-60
2024/01/18 01:42:36;;;;;;;5.13;3.27;;;;;;;1.04;100.00;98410.19;5111831;28;20665;-60
2024/01/18 01:45:06;;;;;;;5.43;4.10;;;;;;;1.08;100.00;98409.19;5111891;28;20206;-60
2024/01/18 01:47:33;;;;;;;5.57;3.97;;;;;;;1.07;100.00;98402.50;5111774;28;20209;-60
2024/01/18 01:50:00;;;;;;;9.10;4.73;;;;;;;1.11;100.00;98396.47;5111554;28;20844;-60
2024/01/18 01:52:30;;;;;;;7.37;4.57;;;;;;;1.10;100.00;98397.34;5110670;28;20197;-60
2024/01/18 01:54:58;;;;;;;9.10;4.97;;;;;;;1.08;100.00;98384.03;5110532;28;20369;-60
2024/01/18 01:57:26;;;;;;;6.97;4.67;;;;;;;1.12;100.00;98377.97;5110721;28;20212;-60
2024/01/18 01:59:55;;;;;;;5.93;4.37;;;;;;;1.14;100.00;98365.31;5110277;28;20670;-60
2024/01/18 02:02:24;;;;;;;8.73;4.27;;;;;;;1.13;100.00;98361.97;5110333;28;20644;-60
2024/01/18 02:04:51;;;;;;;8.63;3.97;;;;;;;1.20;100.00;98351.63;5110460;28;20201;-60
2024/01/18 02:07:19;;;;;;;7.00;5.03;;;;;;;1.19;100.00;98357.53;5110647;28;20205;-60
2024/01/18 02:09:47;;;;;;;10.97;4.40;;;;;;;1.18;100.00;98353.41;5110441;28;20229;-60
2024/01/18 02:12:18;;;;;;;7.70;4.00;;;;;;;1.19;100.00;98357.53;5110354;28;20677;-60
2024/01/18 02:14:45;;;;;;;6.87;3.77;;;;;;;1.20;100.00;98351.63;5110446;28;20201;-60
2024/01/18 02:17:12;;;;;;;7.53;5.10;;;;;;;1.26;100.00;98356.38;5110344;28;20612;-60
2024/01/18 02:19:40;;;;;;;8.50;4.87;;;;;;;1.29;100.00;98349.50;5110150;28;20212;-60
2024/01/18 02:22:08;;;;;;;7.03;4.37;;;;;;;1.39;100.00;98349.06;5110031;28;20236;-60
2024/01/18 02:24:42;;;;;;;6.50;4.37;;;;;;;1.33;100.00;98340.09;5110069;28;20228;-60
2024/01/18 02:27:10;;;;;;;5.33;3.83;;;;;;;1.23;100.00;98333.88;5110386;28;20254;-60
2024/01/18 02:29:37;;;;;;;5.10;3.87;;;;;;;1.29;100.00;98331.06;5110535;28;20196;-60
2024/01/18 02:32:05;;;;;;;6.73;3.47;;;;;;;1.21;100.00;98315.50;5109933;28;20399;-60
2024/01/18 02:34:32;;;;;;;5.87;3.67;;;;;;;1.19;100.00;98314.72;5109735;28;20592;-60
2024/01/18 02:36:59;;;;;;;6.70;3.40;;;;;;;1.10;100.00;98311.75;5109915;28;20704;-60
2024/01/18 02:39:26;;;;;;;6.33;4.00;;;;;;;1.08;100.00;98321.09;5109781;28;20193;-60
2024/01/18 02:41:54;;;;;;;8.90;5.30;;;;;;;1.19;100.00;98317.25;5109783;28;20233;-59
2024/01/18 02:44:23;;;;;;;7.57;4.80;;;;;;;1.18;100.00;98316.44;5109851;28;20216;-60
2024/01/18 02:46:49;;;;;;;5.17;3.23;;;;;;;1.25;100.00;98311.94;5109915;28;20189;-60
2024/01/18 02:49:16;;;;;;;5.50;3.93;;;;;;;1.21;100.00;98307.94;5109717;28;20459;-60
2024/01/18 02:51:44;;;;;;;5.10;3.87;;;;;;;1.21;100.00;98318.81;5067117;28;1229250;-60
2024/01/18 02:54:11;;;;;;;6.63;3.87;;;;;;;1.27;100.00;98307.66;5110692;28;20197;-60
2024/01/18 02:56:38;;;;;;;6.80;4.03;;;;;;;1.27;100.00;98307.66;5110806;28;20213;-60
2024/01/18 02:59:05;;;;;;;11.23;4.33;;;;;;;1.15;100.00;98310.75;5110836;28;20285;-60
2024/01/18 03:01:33;;;;;;;8.23;4.60;;;;;;;1.17;100.00;98303.94;5110370;28;20228;-60
2024/01/18 03:04:00;;;;;;;5.93;4.27;;;;;;;1.26;100.00;98301.00;5110847;28;20584;-60
2024/01/18 03:06:27;;;;;;;7.80;3.67;;;;;;;1.12;100.00;98301.63;5110264;28;20197;-60
2024/01/18 03:08:53;;;;;;;6.47;4.10;;;;;;;1.16;100.00;98302.28;5110231;27;20208;-60
2024/01/18 03:11:20;;;;;;;8.60;4.03;;;;;;;0.98;100.00;98304.78;5109393;28;20728;-60
2024/01/18 03:13:47;;;;;;;10.37;4.93;;;;;;;1.04;100.00;98301.16;5110203;28;20262;-60
2024/01/18 03:16:15;;;;;;;11.30;4.43;;;;;;;1.09;100.00;98297.53;5110279;28;20209;-59
2024/01/18 03:18:46;;;;;;;5.47;3.80;;;;;;;1.01;100.00;98304.63;5110393;28;20204;-60
2024/01/18 03:21:13;;;;;;;5.20;3.83;;;;;;;0.92;100.00;98295.00;5110022;28;20748;-60
2024/01/18 03:23:39;;;;;;;8.67;4.90;;;;;;;1.06;100.00;98307.75;5110298;28;20217;-60
2024/01/18 03:26:07;;;;;;;5.10;3.47;;;;;;;1.09;100.00;98297.53;5110061;28;20211;-60
2024/01/18 03:28:34;;;;;;;5.70;3.63;;;;;;;1.12;100.00;98301.63;5110113;28;20210;-60
2024/01/18 03:31:01;;;;;;;9.83;4.80;;;;;;;1.16;100.00;98299.78;5109887;28;20584;-60
2024/01/18 03:33:28;;;;;;;4.40;3.67;;;;;;;1.19;100.00;98292.06;5110052;28;20197;-60
2024/01/18 03:35:57;;;;;;;5.90;4.20;;;;;;;1.17;100.00;98288.84;5109817;28;20201;-59
2024/01/18 03:38:23;;;;;;;7.73;4.50;;;;;;;1.18;100.00;98300.53;5110026;28;20201;-60
2024/01/18 03:40:50;;;;;;;4.30;3.23;;;;;;;1.20;100.00;98298.75;5109864;28;20295;-60
2024/01/18 03:43:17;;;;;;;6.77;4.23;;;;;;;1.16;100.00;98289.69;5109700;28;20229;-59
2024/01/18 03:45:44;;;;;;;4.30;3.50;;;;;;;1.22;100.00;98292.78;5109793;28;20236;-60
2024/01/18 03:48:11;;;;;;;5.53;3.60;;;;;;;1.28;100.00;98289.97;5109741;28;20201;-59
2024/01/18 03:50:37;;;;;;;5.13;3.23;;;;;;;1.29;100.00;98294.09;5109596;28;20208;-59
2024/01/18 03:53:06;;;;;;;9.37;4.73;;;;;;;1.35;100.00;98290.47;5109438;28;20197;-59
2024/01/18 03:55:32;;;;;;;8.83;4.63;;;;;;;1.39;100.00;98288.63;5109319;28;20755;-59
2024/01/18 03:57:59;;;;;;;8.90;3.67;;;;;;;1.37;100.00;98291.22;5109380;28;20205;-59
2024/01/18 04:00:26;;;;;;;12.17;4.27;;;;;;;1.38;100.00;98280.25;5109463;28;20201;-59
2024/01/18 04:02:53;;;;;;;6.03;4.13;;;;;;;1.39;100.00;98281.06;5109360;28;20225;-59
2024/01/18 04:05:20;;;;;;;10.60;4.40;;;;;;;1.40;100.00;98273.44;5109348;28;20206;-60
2024/01/18 04:07:46;;;;;;;5.47;3.60;;;;;;;1.40;100.00;98278.50;5109349;28;20213;-59
2024/01/18 04:10:15;;;;;;;7.53;4.40;;;;;;;1.54;100.00;98277.78;5109211;28;20213;-60
2024/01/18 04:12:43;;;;;;;9.60;4.70;;;;;;;1.48;100.00;98271.34;5109258;28;20212;-59
2024/01/18 04:15:11;;;;;;;9.03;4.80;;;;;;;1.44;100.00;98269.06;5109437;28;20291;-60
2024/01/18 04:17:38;;;;;;;8.63;5.27;;;;;;;1.44;100.00;98272.41;5109201;28;20193;-60
2024/01/18 04:20:06;;;;;;;5.87;4.43;;;;;;;1.48;100.00;98266.31;5109409;28;20201;-60
2024/01/18 04:22:33;;;;;;;7.67;4.53;;;;;;;1.49;100.00;98260.41;5108820;28;20228;-60
2024/01/18 04:25:00;;;;;;;5.37;4.03;;;;;;;1.28;100.00;98266.47;5108875;28;20251;-60
2024/01/18 04:27:28;;;;;;;8.07;4.30;;;;;;;1.38;100.00;98267.66;5109158;28;20205;-60
2024/01/18 04:29:55;;;;;;;8.00;3.97;;;;;;;1.40;100.00;98265.06;5109132;28;20221;-59
2024/01/18 04:32:22;;;;;;;10.63;4.33;;;;;;;1.09;100.00;98252.22;5109134;28;20654;-59
2024/01/18 04:34:49;;;;;;;3.80;3.50;;;;;;;1.08;100.00;98245.59;5109253;28;20201;-59
2024/01/18 04:37:16;;;;;;;6.63;4.20;;;;;;;1.27;100.00;98244.69;5108885;28;20201;-60
2024/01/18 04:39:43;;;;;;;7.63;4.47;;;;;;;1.33;100.00;98239.34;5108789;28;20674;-59
2024/01/18 04:42:09;;;;;;;8.73;4.73;;;;;;;1.34;100.00;98235.97;5108922;28;20233;-59
2024/01/18 04:44:39;;;;;;;10.13;5.17;;;;;;;1.19;100.00;98236.69;5108739;28;20193;-59
2024/01/18 04:47:06;;;;;;;8.37;5.47;;;;;;;1.34;100.00;98235.97;5108898;28;20826;-59
2024/01/18 04:49:33;;;;;;;10.20;5.30;;;;;;;1.05;100.00;98232.31;5108544;28;20674;-59
2024/01/18 04:52:00;;;;;;;7.93;4.37;;;;;;;1.21;100.00;98233.22;5108740;28;20209;-59
2024/01/18 04:54:27;;;;;;;9.10;5.27;;;;;;;1.26;100.00;98238.03;5108731;28;20200;-60
2024/01/18 04:56:54;;;;;;;6.50;4.50;;;;;;;1.28;100.00;98228.69;5108653;28;20204;-60
2024/01/18 04:59:21;;;;;;;8.53;4.80;;;;;;;1.26;100.00;98233.00;5108766;28;20231;-60
2024/01/18 05:01:50;;;;;;;7.87;4.40;;;;;;;1.15;100.00;98227.66;5108591;28;20587;-60
2024/01/18 05:04:18;;;;;;;5.00;3.83;;;;;;;1.06;100.00;98222.16;5108638;28;20595;-59
2024/01/18 05:06:45;;;;;;;6.87;4.20;;;;;;;1.19;100.00;98221.59;5108638;28;20288;-60
2024/01/18 05:09:16;;;;;;;5.07;4.53;;;;;;;1.29;100.00;98225.31;5108656;28;20200;-60
2024/01/18 05:11:43;;;;;;;7.73;3.23;;;;;;;1.36;100.00;98229.94;5108792;28;20202;-60
2024/01/18 05:14:10;;;;;;;7.67;3.83;;;;;;;1.45;100.00;98228.69;5108671;28;20598;-60
2024/01/18 05:16:39;;;;;;;7.67;4.60;;;;;;;1.54;100.00;98225.75;5108454;28;20686;-60
2024/01/18 05:19:08;;;;;;;7.50;4.87;;;;;;;1.43;100.00;98227.97;5108560;28;20284;-59
2024/01/18 05:21:35;;;;;;;4.07;3.67;;;;;;;1.43;100.00;98219.59;5108368;28;20224;-60
2024/01/18 05:24:01;;;;;;;6.83;4.03;;;;;;;1.25;100.00;98222.13;5108149;28;20237;-60
2024/01/18 05:26:28;;;;;;;5.30;4.33;;;;;;;1.32;100.00;98220.13;5108557;28;20236;-59
2024/01/18 05:28:55;;;;;;;6.00;4.60;;;;;;;1.41;100.00;98216.34;5108297;28;20231;-59
2024/01/18 05:31:22;;;;;;;13.53;4.80;;;;;;;1.44;100.00;98211.94;5108775;28;20201;-59
2024/01/18 05:33:48;;;;;;;4.63;3.30;;;;;;;1.48;100.00;98210.91;5109618;28;20197;-60
2024/01/18 05:36:17;;;;;;;8.93;3.87;;;;;;;1.58;100.00;98208.75;5112220;28;20205;-60
2024/01/18 05:38:44;;;;;;;9.37;4.17;;;;;;;1.57;100.00;98212.16;5112094;28;20201;-60
2024/01/18 05:41:11;;;;;;;6.47;4.63;;;;;;;1.65;100.00;98204.22;5112087;28;20204;-59
2024/01/18 05:43:38;;;;;;;7.87;4.10;;;;;;;1.56;100.00;98206.31;5111957;28;20295;-60
2024/01/18 05:46:04;;;;;;;3.60;3.27;;;;;;;1.56;100.00;98201.25;5111987;28;20602;-59
2024/01/18 05:48:31;;;;;;;8.30;4.10;;;;;;;1.55;100.00;98219.00;5111914;27;20197;-60
2024/01/18 05:50:58;;;;;;;7.23;4.87;;;;;;;1.57;100.00;98235.66;5111902;28;20209;-60
2024/01/18 05:53:26;;;;;;;5.93;4.40;;;;;;;1.56;100.00;98233.19;5111994;28;20666;-60
2024/01/18 05:55:53;;;;;;;5.37;4.40;;;;;;;1.57;100.00;98237.34;5111989;28;20205;-60
2024/01/18 05:58:20;;;;;;;3.67;3.23;;;;;;;1.50;100.00;98241.88;5111933;28;20289;-60
2024/01/18 06:00:47;;;;;;;8.43;3.60;;;;;;;1.52;100.00;98250.19;5111536;28;20201;-60
2024/01/18 06:03:13;;;;;;;5.60;4.20;;;;;;;1.39;100.00;98244.09;5111751;28;20243;-60
2024/01/18 06:05:40;;;;;;;7.00;3.93;;;;;;;1.35;100.00;98247.66;5111575;28;20674;-59
2024/01/18 06:08:07;;;;;;;23.57;5.63;;;;;;;1.34;100.00;98248.56;5111698;28;20197;-60
2024/01/18 06:10:35;;;;;;;6.70;4.73;;;;;;;1.41;100.00;98249.88;5111207;28;20225;-60
2024/01/18 06:13:02;;;;;;;7.87;4.77;;;;;;;1.42;100.00;98246.47;5111620;28;20193;-59
2024/01/18 06:15:29;;;;;;;5.17;3.97;;;;;;;1.39;100.00;98244.09;5111410;28;20674;-60
2024/01/18 06:17:56;;;;;;;5.07;3.30;;;;;;;1.44;100.00;98232.09;5111532;28;20222;-60
2024/01/18 06:20:23;;;;;;;10.10;4.90;;;;;;;1.45;100.00;98233.72;5111790;28;20197;-60
2024/01/18 06:22:50;;;;;;;5.27;4.03;;;;;;;1.44;100.00;98232.09;5111559;28;20244;-60
2024/01/18 06:25:17;;;;;;;9.60;5.57;;;;;;;1.37;100.00;98230.78;5110970;28;20205;-60
2024/01/18 06:27:45;;;;;;;6.30;4.53;;;;;;;1.12;100.00;98226.91;5111133;28;20202;-60
2024/01/18 06:30:13;;;;;;;8.27;4.53;;;;;;;1.22;100.00;98221.44;5111105;28;20212;-60
2024/01/18 06:32:40;;;;;;;7.73;3.73;;;;;;;1.12;100.00;98204.25;5111113;28;20213;-60
2024/01/18 06:35:07;;;;;;;4.63;3.83;;;;;;;1.11;100.00;98189.25;5110951;28;20212;-60
2024/01/18 06:37:34;;;;;;;5.53;3.13;;;;;;;1.15;100.00;98194.94;5110988;28;20197;-59
2024/01/18 06:40:01;;;;;;;7.27;3.87;;;;;;;0.90;100.00;98193.56;5110963;28;20208;-59
2024/01/18 06:42:28;;;;;;;5.40;4.10;;;;;;;0.90;100.00;98196.09;5110843;28;20225;-59
2024/01/18 06:44:56;;;;;;;6.93;4.20;;;;;;;1.06;100.00;98199.53;5110119;28;20201;-59
2024/01/18 06:47:23;;;;;;;13.77;4.83;;;;;;;1.23;100.00;98202.94;5110516;28;20205;-60
2024/01/18 06:49:50;;;;;;;6.00;5.13;;;;;;;1.33;100.00;98207.44;5110538;28;20197;-59
2024/01/18 06:52:17;;;;;;;8.03;4.43;;;;;;;1.29;100.00;98188.34;5111004;28;20217;-60
2024/01/18 06:54:44;;;;;;;7.20;4.87;;;;;;;1.39;100.00;98192.91;5110611;28;20212;-59
2024/01/18 06:57:11;;;;;;;8.10;4.83;;;;;;;1.49;100.00;98189.88;5110696;28;20198;-60
2024/01/18 06:59:38;;;;;;;8.40;4.30;;;;;;;1.52;100.00;98189.72;5110706;28;20208;-60
2024/01/18 07:02:06;;;;;;;5.30;3.90;;;;;;;1.42;100.00;98178.47;5110618;28;20200;-59
2024/01/18 07:04:33;;;;;;;5.03;4.07;;;;;;;1.53;100.00;98173.72;5110354;28;20285;-59
2024/01/18 07:07:00;;;;;;;5.87;3.07;;;;;;;1.56;100.00;98171.03;5110349;28;20201;-59
2024/01/18 07:09:27;;;;;;;5.53;3.87;;;;;;;1.49;100.00;98181.50;5110489;28;20201;-60
2024/01/18 07:11:53;;;;;;;10.87;4.70;;;;;;;1.63;100.00;98176.59;5110618;28;20208;-59
2024/01/18 07:14:21;;;;;;;6.90;3.67;;;;;;;1.48;100.00;98175.63;5110285;28;20205;-59
2024/01/18 07:16:48;;;;;;;7.70;4.80;;;;;;;1.52;100.00;98174.63;5110118;28;20189;-59
2024/01/18 07:19:16;;;;;;;7.73;3.87;;;;;;;1.48;100.00;98172.31;5110279;27;20224;-59
2024/01/18 07:21:43;;;;;;;6.90;4.07;;;;;;;1.63;100.00;98175.75;5110215;28;20205;-60
2024/01/18 07:24:10;;;;;;;5.27;3.53;;;;;;;1.63;100.00;98175.75;5110262;28;20228;-59
2024/01/18 07:26:36;;;;;;;15.30;8.37;;;;;;;1.67;100.00;98175.53;5110058;28;20205;-60
2024/01/18 07:29:03;;;;;;;10.30;5.33;;;;;;;1.69;100.00;98175.47;5110047;28;20641;-60
2024/01/18 07:31:30;;;;;;;8.83;5.50;;;;;;;1.87;100.00;98174.53;5109837;28;20205;-60
2024/01/18 07:33:57;;;;;;;5.93;4.03;;;;;;;1.81;100.00;98164.75;5109606;28;20671;-60
2024/01/18 07:36:25;;;;;;;6.23;4.20;;;;;;;2.02;100.00;98158.59;5110202;28;20197;-59
2024/01/18 07:38:52;;;;;;;9.23;4.43;;;;;;;2.00;100.00;98155.34;5109801;28;20688;-60
2024/01/18 07:41:18;;;;;;;7.60;4.97;;;;;;;1.75;100.00;98144.94;5109897;28;20633;-59
2024/01/18 07:43:45;;;;;;;7.87;4.80;;;;;;;2.03;100.00;98139.25;5109643;28;20229;-60
2024/01/18 07:46:12;;;;;;;8.03;5.50;;;;;;;2.06;100.00;98138.28;5109782;28;20674;-57
2024/01/18 07:48:39;;;;;;;17.27;9.10;;;;;;;2.13;100.00;98129.50;5109949;28;20208;-58
2024/01/18 07:51:05;;;;;;;17.97;7.70;;;;;;;2.14;100.00;98131.13;5109448;28;20220;-58
2024/01/18 07:53:34;;;;;;;10.07;7.50;;;;;;;2.26;100.00;98143.88;5109814;28;20208;-58
2024/01/18 07:56:01;;;;;;;15.17;8.47;;;;;;;2.23;100.00;98145.75;5109587;28;20212;-59
2024/01/18 07:58:27;;;;;;;12.40;7.03;;;;;;;2.09;100.00;98138.09;5108975;28;20205;-59
2024/01/18 08:00:54;;;;;;;10.20;7.00;;;;;;;2.12;100.00;98145.50;5109702;28;20212;-59
2024/01/18 08:03:21;;;;;;;12.97;6.63;;;;;;;2.26;100.00;98141.34;5109598;28;20236;-59
2024/01/18 08:05:48;;;;;;;14.77;9.33;;;;;;;2.44;100.00;98133.69;5109302;28;20212;-59
2024/01/18 08:08:14;;;;;;;11.40;6.23;;;;;;;2.22;100.00;98129.81;5109646;28;20212;-59
2024/01/18 08:10:43;;;;;;;6.17;4.03;;;;;;;2.39;100.00;98133.16;5109199;28;20197;-59
2024/01/18 08:13:10;;;;;;;11.53;7.60;;;;;;;2.46;100.00;98112.53;5109123;28;20201;-59
2024/01/18 08:15:37;;;;;;;11.30;5.77;;;;;;;2.53;100.00;98115.56;5109440;28;20658;-59
2024/01/18 08:18:04;;;;;;;6.73;4.53;;;;;;;2.51;100.00;98111.47;5109014;28;20197;-59
2024/01/18 08:20:31;;;;;;;9.73;5.83;;;;;;;2.56;100.00;98117.06;5109288;28;20201;-59
2024/01/18 08:22:58;;;;;;;8.47;5.23;;;;;;;2.66;100.00;98103.06;5109178;28;20225;-59
2024/01/18 08:25:25;;;;;;;7.43;4.67;;;;;;;2.58;100.00;98092.56;5108827;28;20603;-59
2024/01/18 08:27:56;;;;;;;7.90;4.77;;;;;;;2.59;100.00;98089.97;5109050;28;20201;-59
2024/01/18 08:30:23;;;;;;;6.33;3.90;;;;;;;2.56;100.00;98091.84;5109382;28;20194;-59
2024/01/18 08:32:50;;;;;;;11.37;5.37;;;;;;;2.75;100.00;98077.28;5108884;28;20641;-59
2024/01/18 08:35:17;;;;;;;9.40;5.07;;;;;;;2.65;100.00;98086.31;5109283;28;20208;-60
2024/01/18 08:37:46;;;;;;;3.93;3.23;;;;;;;2.85;100.00;98093.56;5108908;28;20610;-59
2024/01/18 08:40:14;;;;;;;7.47;4.50;;;;;;;2.90;100.00;98086.50;5108884;28;20730;-59
2024/01/18 08:42:43;;;;;;;10.63;4.70;;;;;;;3.10;100.00;98071.94;5109039;28;20239;-59
2024/01/18 08:45:12;;;;;;;7.97;4.53;;;;;;;2.74;100.00;98073.16;5109012;28;20205;-59
2024/01/18 08:47:40;;;;;;;14.97;6.30;;;;;;;2.59;100.00;98066.44;5108784;28;20197;-59
2024/01/18 08:50:07;;;;;;;13.67;4.37;;;;;;;2.73;100.00;98053.84;5108881;28;20608;-59
2024/01/18 08:52:34;;;;;;;8.60;4.23;;;;;;;2.82;100.00;98063.44;5108974;28;20581;-59
2024/01/18 08:55:01;;;;;;;5.60;4.40;;;;;;;2.99;100.00;98064.16;5108756;28;20197;-59
2024/01/18 08:57:29;;;;;;;8.90;5.63;;;;;;;3.14;100.00;98059.06;5108939;28;20198;-59
2024/01/18 08:59:56;;;;;;;8.03;4.00;;;;;;;3.33;100.00;98052.91;5108822;28;20653;-59
2024/01/18 09:02:24;;;;;;;7.17;4.87;;;;;;;3.46;100.00;98047.94;5108896;28;20201;-59
2024/01/18 09:04:51;;;;;;;5.07;3.20;;;;;;;3.55;100.00;98042.31;5108720;28;20236;-59
2024/01/18 09:07:18;;;;;;;7.20;4.87;;;;;;;3.62;100.00;98029.22;5108647;28;20197;-59
2024/01/18 09:09:45;;;;;;;20.50;10.15;;;;;;;3.73;100.00;98020.19;5110192;28;20449;-59
2024/01/18 09:12:13;;;;;;;13.67;6.43;;;;;;;3.69;100.00;98014.50;5113184;28;20197;-59
2024/01/18 09:14:40;;;;;;;8.10;5.20;;;;;;;3.60;100.00;98010.00;5112516;28;20381;-59
2024/01/18 09:17:06;;;;;;;10.03;5.40;;;;;;;3.77;100.00;98011.50;5112701;28;20592;-59
2024/01/18 09:19:35;;;;;;;12.10;5.13;;;;;;;3.79;100.00;98000.41;5112389;28;20244;-59
2024/01/18 09:22:02;;;;;;;8.83;6.80;;;;;;;3.68;100.00;97992.66;5112775;28;20225;-59
2024/01/18 09:24:29;;;;;;;12.97;7.00;;;;;;;3.69;100.00;97984.16;5112552;28;20225;-59
2024/01/18 09:26:56;;;;;;;9.20;6.47;;;;;;;3.62;100.00;97982.94;5112402;28;20229;-59
2024/01/18 09:29:23;;;;;;;9.17;5.40;;;;;;;3.74;100.00;97981.34;5112326;28;20210;-59
2024/01/18 09:31:49;;;;;;;12.00;7.27;;;;;;;3.83;100.00;97986.63;5112327;28;20201;-59
2024/01/18 09:34:16;;;;;;;14.50;6.93;;;;;;;3.99;100.00;97988.22;5112478;28;20205;-59
2024/01/18 09:36:44;;;;;;;7.40;5.67;;;;;;;3.99;100.00;97990.75;5112145;28;20204;-59
2024/01/18 09:39:15;;;;;;;8.77;5.87;;;;;;;4.07;100.00;97991.06;5112169;28;20197;-59
2024/01/18 09:41:42;;;;;;;9.20;5.83;;;;;;;4.17;100.00;97989.59;5112183;28;20208;-59
2024/01/18 09:44:13;;;;;;;10.93;6.80;;;;;;;4.16;100.00;97971.97;5112086;28;20328;-58
2024/01/18 09:46:41;;;;;;;10.13;6.27;;;;;;;4.14;100.00;97983.91;5112182;27;20255;-59
2024/01/18 09:49:08;;;;;;;9.33;6.43;;;;;;;4.18;100.00;97986.13;5111933;28;20216;-59
2024/01/18 09:51:35;;;;;;;10.67;6.07;;;;;;;4.22;100.00;97977.47;5111811;28;20209;-59
2024/01/18 09:54:04;;;;;;;10.30;5.60;;;;;;;4.38;100.00;97981.53;5111818;28;20193;-59
2024/01/18 09:56:36;;;;;;;12.10;6.87;;;;;;;4.29;100.00;97978.69;5111636;28;20221;-59
2024/01/18 09:59:04;;;;;;;13.13;5.93;;;;;;;4.39;100.00;97975.53;5111591;28;20197;-59
2024/01/18 10:01:32;;;;;;;11.50;6.17;;;;;;;4.32;100.00;97991.13;5111855;28;20677;-59
2024/01/18 10:03:59;;;;;;;13.70;7.87;;;;;;;4.26;100.00;97999.13;5111468;28;20309;-59
2024/01/18 10:06:26;;;;;;;9.67;5.63;;;;;;;4.12;100.00;97986.53;5111701;28;20662;-59
2024/01/18 10:08:53;;;;;;;10.23;6.60;;;;;;;4.10;100.00;97983.28;5111569;28;20213;-59
2024/01/18 10:11:22;;;;;;;10.10;5.53;;;;;;;4.00;100.00;97997.44;5111574;28;20731;-59
2024/01/18 10:13:51;;;;;;;10.70;7.23;;;;;;;4.03;100.00;97987.13;5111414;28;20208;-59
2024/01/18 10:16:28;;;;;;;10.50;5.93;;;;;;;3.90;100.00;97978.66;5111529;28;20196;-59
2024/01/18 10:18:56;;;;;;;15.03;6.47;;;;;;;3.97;100.00;97977.41;5111504;28;20208;-59
2024/01/18 10:21:23;;;;;;;14.80;7.97;;;;;;;4.09;100.00;97967.28;5111129;28;20205;-59
2024/01/18 10:23:50;;;;;;;13.17;6.47;;;;;;;4.09;100.00;97966.50;5111354;28;20309;-59
2024/01/18 10:26:17;;;;;;;18.40;7.07;;;;;;;4.18;100.00;97957.50;5111172;28;20885;-59
2024/01/18 10:28:45;;;;;;;13.53;7.97;;;;;;;4.12;100.00;97950.31;5111224;28;20206;-59
2024/01/18 10:31:12;;;;;;;16.53;8.77;;;;;;;4.21;100.00;97944.66;5111423;28;20193;-59
2024/01/18 10:33:39;;;;;;;20.73;7.47;;;;;;;4.02;100.00;97945.03;5111384;28;20204;-59
2024/01/18 10:36:06;;;;;;;11.97;6.80;;;;;;;3.75;100.00;97938.31;5111499;28;20662;-59
2024/01/18 10:38:34;;;;;;;11.83;7.53;;;;;;;3.38;100.00;97933.00;5111074;28;20197;-59
2024/01/18 10:41:01;;;;;;;9.37;6.13;;;;;;;3.19;100.00;97935.00;5110943;28;20716;-59
2024/01/18 10:43:30;;;;;;;13.37;7.50;;;;;;;3.14;100.00;97930.25;5110693;28;20201;-59
2024/01/18 10:45:59;;;;;;;13.07;7.13;;;;;;;3.19;100.00;97924.91;5111076;28;20207;-58
2024/01/18 10:48:26;;;;;;;12.17;7.30;;;;;;;3.15;100.00;97923.50;5110873;27;20204;-59
2024/01/18 10:50:55;;;;;;;17.33;8.17;;;;;;;3.15;100.00;97918.44;5110754;27;20197;-58
2024/01/18 10:53:24;;;;;;;10.30;5.90;;;;;;;3.23;100.00;97906.16;5111052;28;20207;-59
2024/01/18 10:55:51;;;;;;;12.77;6.97;;;;;;;3.26;100.00;97902.59;5110716;28;20209;-59
2024/01/18 10:58:18;;;;;;;9.30;5.53;;;;;;;3.22;100.00;97888.56;5110666;28;20202;-61
2024/01/18 11:00:46;;;;;;;8.63;5.70;;;;;;;3.06;100.00;97883.66;5110713;28;20201;-59
2024/01/18 11:03:15;;;;;;;14.50;6.53;;;;;;;2.98;100.00;97916.13;5110621;28;20274;-59
2024/01/18 11:05:45;;;;;;;15.93;5.90;;;;;;;2.93;100.00;97901.22;5110390;28;20229;-59
2024/01/18 11:08:13;;;;;;;21.53;8.30;;;;;;;3.00;100.00;97886.56;5110434;28;20284;-59
2024/01/18 11:10:40;;;;;;;11.20;6.70;;;;;;;3.02;100.00;97888.06;5110519;28;20228;-59
2024/01/18 11:13:09;;;;;;;10.03;6.87;;;;;;;3.04;100.00;97890.50;5110279;28;20497;-59
2024/01/18 11:15:36;;;;;;;13.33;7.70;;;;;;;3.15;100.00;97878.03;5110225;28;20204;-59
2024/01/18 11:18:10;;;;;;;8.83;5.63;;;;;;;3.15;100.00;97888.13;5110359;28;20287;-59
2024/01/18 11:21:04;;;;;;;11.80;6.30;;;;;;;3.12;100.00;97884.06;5110613;28;20197;-59
2024/01/18 11:23:36;;;;;;;8.53;5.73;;;;;;;3.07;100.00;97885.25;5110423;28;20237;-59
2024/01/18 11:26:05;;;;;;;9.50;5.77;;;;;;;3.04;100.00;97880.41;5109941;28;20256;-59
2024/01/18 11:28:32;;;;;;;10.90;6.60;;;;;;;3.22;100.00;97874.22;5110270;28;20293;-59
2024/01/18 11:30:59;;;;;;;10.70;7.43;;;;;;;3.38;100.00;97864.78;5109619;28;20606;-59
2024/01/18 11:33:26;;;;;;;10.10;6.63;;;;;;;3.53;100.00;97852.09;5109620;28;20372;-59